Libertador Gral D Jose De San Martin Airport
SARP : rendu visible

Aérodrome :











RETROUVEZ-NOUS SUR...

 
LOGIN :

S'inscrire | Disclaimer

   EN    FR    IT 

 









Légende :    VFR   VFR Marginal   IFR   IFR Intensif   IFR Très Intensif
Visi : 
Plafond : 
>= 8 km
>= 3000ft
5 à 8 km
1000 à 3000 ft
1500m à 5 km
500 à 1000 ft
800 à 1500m
200 à 500 ft
< 800m
< 200 ft
Symboles :   Orages  Brouillard  Fortes neiges  Fortes précipitations  Vent > 20 kt






- Altitude de l'aérodrome : 430 ft
- Code IATA : PSS


SARP - Libertador Gral D Jose De San Martin

DERNIER METAR :
  • 221400Z 09007KT CAVOK 21/08 Q1021

METARs EXPIRÉS :
  • 221300Z 11009KT CAVOK 18/07 Q1021
  • 221200Z 09008KT CAVOK 15/05 Q1021

TAF TAF SARP
Valide du 22 à 12h jusqu'au 23 à 12h UTC


221100Z 2212/2312 14005KT CAVOK TX26/2218Z TN10/2310Z
FIR SARR / Amérique du Sud



MET'MAP, la Météo Aéronautique d'un coup d'oeil ! - Copyright ORBIFLY Décembre 2007 - Disclaimer

ORBIFLY MET'MAP TEAM :

Programmation & Développement : Alexandra Zaïnal
Sur une idée originale de : Baudouin d'Aumeries
Assistance à la programmation : Marc-Olivier Méhu
Soutien technique & logistique : Manuel Goepfert

Contact : metmap@orbifly.com




SOURCES & CREDITS :

   NOAA       Earth
Advisory